Main page
METAR-TAF:

METAR-TAF

Airports :

Wattisham, England

RAF Wattisham

latitude: 52-07N, longitude: 000-58E, elevation: 87 m

Current weather observation

The report was made 30 minutes ago, at 17:50 UTC
Wind 17 kt from the West
Temperature 14°C
Humidity 77%
Pressure 1014 hPa
Visibility 10 km or more
Few clouds at a height of 2500 ft
Broken clouds at a height of 3000 ft

METAR: EGUW 201750Z 27017KT 9999 FEW025 BKN030 14/10 Q1014 BLU BECMG BKN020 WHT

Time: 18:20 (18:20 UTC)

Forecast

The report was made 1 hour and 50 minutes ago, at 16:30 UTC
Forecast valid from 20 at 18 UTC to 20 at 24 UTC
Wind 10 kt from the West
Visibility 10 km or more
Broken clouds at a height of 3000 ft
Becoming
from 20 at 18 UTC to 20 at 21 UTC
Broken clouds at a height of 1500 ft
Probability 40%
from 20 at 20 UTC to 20 at 24 UTC
Broken clouds at a height of 1200 ft

TAF: EGUW 201630Z 2018/2024 28010KT 9999 BKN030 BECMG 2018/2021 BKN015 PROB40 2020/2024 BKN012

Weather observations and forecasts of more than 4000 airports (METAR and TAF reports).

The available stations are represented by yellow and red dots on the map.

Hover mouse over dot to see the name of the station.

Then click to see weather observations and forecasts.

To change the map : click on the green buttons with a black cross to zoom in, on the green button with a dash to zoom out, or on the green arrows for adjacent maps.


METAR-TAF: